Monday, October 16, 2017, 11:41 PM EDT
Back to Local

KBGR, Bangor Int'l Airport

Location: Bangor, ME, United States Lat: 44.8
Local Time: 11:41 PM EDT ( 3:41 GMT) Lon: -68.817
Time Zone: US/Eastern Elev: 193 ft

Show me the last for .
Show Decoded

2017-10-16 22:53 METAR KBGR 170253Z 32007KT 10SM BKN050 05/M01 A3010 RMK AO2 SLP191 T00501011
                 51019 =
2017-10-16 21:53 METAR KBGR 170153Z 31008KT 10SM FEW049 06/M01 A3008 RMK AO2 SLP187 T00611006 =
2017-10-16 20:53 METAR KBGR 170053Z 33011KT 10SM OVC048 08/01 A3006 RMK AO2 SLP179 T00780006 =
2017-10-16 19:53 METAR KBGR 162353Z 33009KT 10SM BKN042 OVC120 08/01 A3004 RMK AO2 SLP172
                 T00830006 10139 20083 51023 =
2017-10-16 18:53 METAR KBGR 162253Z 33010KT 10SM SCT043 BKN120 08/01 A3003 RMK AO2 SLP168
                 T00830011 =
2017-10-16 17:53 METAR KBGR 162153Z 32014KT 10SM BKN120 BKN250 09/01 A2999 RMK AO2 SLP155
                 T00890011 =
2017-10-16 16:53 METAR KBGR 162053Z 32011G20KT 10SM FEW060 BKN120 BKN250 10/02 A2997 RMK AO2
                 SLP146 T01000017 51021 =
2017-10-16 15:53 METAR KBGR 161953Z 30015G20KT 10SM FEW060 BKN120 BKN250 11/02 A2995 RMK AO2
                 SLP138 T01110022 =
2017-10-16 14:53 METAR KBGR 161853Z 32013KT 10SM SCT060 BKN120 12/02 A2993 RMK AO2 SLP134
                 T01220022 =
2017-10-16 13:53 METAR KBGR 161753Z 32013KT 10SM SCT060 BKN150 13/02 A2991 RMK AO2 SLP125
                 T01280022 10133 20094 50010 =
2017-10-16 12:53 METAR KBGR 161653Z 32014KT 10SM SCT035 SCT060 BKN150 12/03 A2991 RMK AO2 SLP125
                 T01170028 =
2017-10-16 11:53 METAR KBGR 161553Z 33014KT 10SM FEW035 SCT050 BKN120 12/03 A2989 RMK AO2 SLP121
                 T01220028 =
2017-10-16 10:53 METAR KBGR 161453Z 31014KT 10SM SCT032 BKN045 BKN120 11/03 A2988 RMK AO2 SLP115
                 T01110028 51027 =
2017-10-16 09:53 METAR KBGR 161353Z 32012G21KT 10SM SCT035 SCT050 BKN120 10/02 A2987 RMK AO2
                 SLP114 T01000022 =
2017-10-16 08:53 METAR KBGR 161253Z 33016G26KT 10SM SCT031 BKN045 BKN110 10/02 A2986 RMK AO2 PK
                 WND 32027/1211 SLP110 T01000022 =
2017-10-16 07:53 METAR KBGR 161153Z 30013G22KT 10SM FEW030 SCT050 BKN110 12/03 A2979 RMK AO2 PK
                 WND 33027/1140 SLP088 T01220033 10211 20122 53065 =
2017-10-16 06:53 METAR KBGR 161053Z 31016G25KT 10SM FEW030 SCT050 OVC160 15/06 A2971 RMK AO2 PK
                 WND 32026/1037 SLP058 T01500056 =
2017-10-16 05:53 METAR KBGR 160953Z 30011G20KT 10SM FEW030 SCT050 BKN160 18/08 A2966 RMK AO2
                 SLP040 T01780078 =
2017-10-16 04:53 METAR KBGR 160853Z 27011G19KT 10SM SCT060 SCT120 BKN160 21/13 A2960 RMK AO2
                 SLP020 T02060133 53018 =
2017-10-16 03:53 METAR KBGR 160753Z 25010G17KT 10SM BKN120 21/14 A2957 RMK AO2 SLP008 T02060144 =
2017-10-16 02:53 METAR KBGR 160653Z 22008KT 10SM OVC110 20/16 A2955 RMK AO2 SLP003 T02000161 =
2017-10-16 01:53 METAR KBGR 160553Z 21009KT 10SM BKN100 21/16 A2955 RMK AO2 SLP002 T02060161
                 10206 20178 53002 =
2017-10-16 00:53 METAR KBGR 160453Z 22011G18KT 10SM BKN110 21/16 A2955 RMK AO2 SLP003 T02060161
                 402060139 =
2017-10-15 23:53 METAR KBGR 160353Z 20011G20KT 10SM FEW022 19/16 A2954 RMK AO2 SLP000 T01940161 =

Support USWX by starting your Amazon purchase here.